Time;durP1;ratioP1;P1;durP2;ratioP2;P2;SDS_P1;SDS_P2;PMS_P1;PMS_P2;Temp;Humidity;BMP_temperature;BMP_pressure;BME280_temperature;BME280_humidity;BME280_pressure;Samples;Min_cycle;Max_cycle;Signal;HPM_P1;HPM_P2
2022/12/08 00:01:21;;;;;;;13.10;7.10;;;;;;;7.68;100.00;92887.28;5110689;28;20043;-72
2022/12/08 00:03:48;;;;;;;10.63;7.18;;;;;;;7.68;100.00;92888.03;5109776;28;20050;-72
2022/12/08 00:09:22;;;;;;;11.00;7.45;;;;;;;7.67;100.00;92891.59;5110319;28;20066;-72
2022/12/08 00:11:53;;;;;;;11.82;7.28;;;;;;;7.59;100.00;92886.69;5109588;28;20055;-72
2022/12/08 00:14:23;;;;;;;9.55;6.57;;;;;;;7.68;100.00;92900.06;5110359;28;20039;-72
2022/12/08 00:16:50;;;;;;;9.02;7.20;;;;;;;7.71;100.00;92905.56;5110375;28;20040;-72
2022/12/08 00:19:17;;;;;;;8.45;6.55;;;;;;;7.69;100.00;92909.28;5110107;28;20051;-72
2022/12/08 00:21:43;;;;;;;11.48;7.55;;;;;;;7.72;100.00;92908.88;5110160;28;20040;-72
2022/12/08 00:24:10;;;;;;;10.32;7.38;;;;;;;7.75;100.00;92903.38;5110304;28;20550;-72
2022/12/08 00:26:37;;;;;;;11.23;6.50;;;;;;;7.74;100.00;92912.81;5110002;28;20085;-72
2022/12/08 00:29:04;;;;;;;12.05;8.93;;;;;;;7.79;100.00;92911.44;5110240;28;20055;-72
2022/12/08 00:31:32;;;;;;;12.60;8.15;;;;;;;7.84;100.00;92921.84;5108643;28;20043;-72
2022/12/08 00:33:59;;;;;;;11.20;7.82;;;;;;;7.84;100.00;92921.84;5110370;28;20421;-72
2022/12/08 00:36:26;;;;;;;14.23;8.73;;;;;;;7.87;100.00;92927.34;5109769;28;20047;-72
2022/12/08 00:38:53;;;;;;;23.27;14.88;;;;;;;7.95;100.00;92926.34;5109806;28;20482;-72
2022/12/08 00:42:10;;;;;;;15.20;10.30;;;;;;;8.01;100.00;92937.56;5110209;28;20203;-72
2022/12/08 00:44:11;;;;;;;14.23;10.00;;;;;;;8.07;100.00;92936.75;5109759;28;20520;-72
2022/12/08 00:46:40;;;;;;;19.13;12.02;;;;;;;8.08;100.00;92929.88;5109965;28;20047;-72
2022/12/08 00:49:07;;;;;;;22.45;14.02;;;;;;;8.05;100.00;92938.72;5109824;28;20457;-72
2022/12/08 00:51:34;;;;;;;15.65;10.88;;;;;;;8.10;100.00;92945.81;5106732;28;21314;-72
2022/12/08 00:54:00;;;;;;;13.27;9.25;;;;;;;8.13;100.00;92947.94;5098800;28;20503;-72
2022/12/08 00:56:27;;;;;;;11.85;9.00;;;;;;;8.10;100.00;92938.13;5109483;28;20040;-72
2022/12/08 00:58:54;;;;;;;17.33;11.43;;;;;;;8.05;100.00;92936.16;5109741;28;20051;-72
2022/12/08 01:01:21;;;;;;;14.80;9.25;;;;;;;8.04;100.00;92933.81;5109686;28;20449;-72
2022/12/08 01:03:49;;;;;;;13.32;9.23;;;;;;;8.03;100.00;92925.34;5110178;28;20043;-71
2022/12/08 01:06:16;;;;;;;12.60;8.38;;;;;;;8.00;100.00;92928.31;5109709;28;20047;-72
2022/12/08 01:08:42;;;;;;;14.27;9.15;;;;;;;7.97;100.00;92921.81;5109434;28;20039;-72
2022/12/08 01:11:11;;;;;;;20.90;10.05;;;;;;;7.99;100.00;92924.97;5109685;28;20073;-72
2022/12/08 01:13:38;;;;;;;13.38;8.75;;;;;;;8.00;100.00;92921.44;5109848;28;20093;-71
2022/12/08 01:16:06;;;;;;;12.95;9.45;;;;;;;7.95;100.00;92913.56;5110300;28;20100;-71
2022/12/08 01:18:33;;;;;;;11.63;8.30;;;;;;;7.86;100.00;92918.13;5113568;28;20044;-71
2022/12/08 01:21:04;;;;;;;13.48;8.68;;;;;;;7.84;100.00;92912.41;5113122;28;20070;-72
2022/12/08 01:23:31;;;;;;;18.65;13.23;;;;;;;7.70;100.00;92901.44;5113045;28;20540;-72
2022/12/08 01:26:04;;;;;;;15.15;11.48;;;;;;;7.65;100.00;92897.88;5112596;28;20047;-72
2022/12/08 01:28:31;;;;;;;12.35;8.00;;;;;;;7.56;100.00;92904.97;5112589;28;20515;-72
2022/12/08 01:30:59;;;;;;;12.05;8.75;;;;;;;7.49;100.00;92904.97;5112732;28;20043;-72
2022/12/08 01:33:27;;;;;;;13.65;9.70;;;;;;;7.39;100.00;92897.72;5113068;28;20729;-72
2022/12/08 01:35:54;;;;;;;13.82;8.30;;;;;;;7.41;100.00;92905.97;5112481;28;20051;-72
2022/12/08 01:38:23;;;;;;;10.50;7.38;;;;;;;7.35;100.00;92904.19;5112830;28;20415;-73
2022/12/08 01:40:50;;;;;;;13.30;9.13;;;;;;;7.29;100.00;92897.31;5112713;28;20445;-73
2022/12/08 01:43:18;;;;;;;12.50;8.57;;;;;;;7.27;100.00;92886.53;5112793;28;20097;-72
2022/12/08 01:45:46;;;;;;;10.95;7.18;;;;;;;7.20;100.00;92887.31;5112543;28;20453;-72
2022/12/08 01:48:18;;;;;;;10.30;7.45;;;;;;;7.11;100.00;92887.69;5112811;28;20097;-72
2022/12/08 01:50:46;;;;;;;12.02;8.45;;;;;;;7.08;100.00;92882.00;5112384;28;20579;-72
2022/12/08 01:53:18;;;;;;;12.43;8.38;;;;;;;7.09;100.00;92885.34;5112550;28;20109;-71
2022/12/08 01:55:51;;;;;;;14.13;9.05;;;;;;;6.97;100.00;92876.66;5112590;28;20036;-72
2022/12/08 01:58:23;;;;;;;11.98;9.02;;;;;;;7.00;100.00;92886.50;5112292;28;20039;-72
2022/12/08 02:00:51;;;;;;;13.65;9.10;;;;;;;7.03;100.00;92889.44;5112177;28;20490;-72
2022/12/08 02:03:23;;;;;;;15.27;10.80;;;;;;;7.06;100.00;92885.72;5112417;28;20040;-72
2022/12/08 02:05:52;;;;;;;13.98;9.93;;;;;;;7.06;100.00;92891.63;5112338;28;20437;-72
2022/12/08 02:08:19;;;;;;;13.40;9.82;;;;;;;7.06;100.00;92886.53;5112396;28;20105;-72
2022/12/08 02:10:49;;;;;;;15.70;10.18;;;;;;;7.06;100.00;92883.97;5111986;28;20096;-72
2022/12/08 02:13:19;;;;;;;14.68;9.93;;;;;;;7.09;100.00;92870.78;5112528;28;20043;-72
2022/12/08 02:15:57;;;;;;;13.13;10.15;;;;;;;7.07;100.00;92877.88;5112146;28;20215;-72
2022/12/08 02:18:37;;;;;;;13.00;8.77;;;;;;;7.01;100.00;92871.00;5112271;28;20051;-72
2022/12/08 02:21:09;;;;;;;11.40;8.10;;;;;;;7.04;100.00;92867.25;5112209;28;20055;-71
2022/12/08 02:23:46;;;;;;;10.00;8.07;;;;;;;7.01;100.00;92865.09;5111689;28;20088;-72
2022/12/08 02:26:51;;;;;;;14.23;7.55;;;;;;;7.04;100.00;92872.38;5111790;28;20044;-71
2022/12/08 02:29:56;;;;;;;12.75;7.55;;;;;;;7.07;100.00;92871.97;5093181;28;20051;-72
2022/12/08 02:32:46;;;;;;;10.13;7.60;;;;;;;7.12;100.00;92874.72;5111564;27;20067;-72
2022/12/08 02:35:23;;;;;;;9.57;7.88;;;;;;;7.07;100.00;92865.09;5109027;28;20116;-72
2022/12/08 02:37:59;;;;;;;12.82;7.15;;;;;;;7.03;100.00;92861.34;5111512;28;20036;-72
2022/12/08 02:40:28;;;;;;;;;;;;;;;7.20;100.00;92876.28;5112304;28;20092;-72
2022/12/08 02:43:00;;;;;;;11.20;7.30;;;;;;;7.16;100.00;92875.09;5111093;28;20268;-72
2022/12/08 02:45:32;;;;;;;8.65;6.80;;;;;;;7.18;100.00;92870.59;5111008;28;20043;-72
2022/12/08 02:48:00;;;;;;;12.75;7.10;;;;;;;7.19;100.00;92867.84;5111232;28;20361;-72
2022/12/08 02:50:28;;;;;;;11.65;6.95;;;;;;;7.20;100.00;92874.53;5111556;28;20048;-72
2022/12/08 02:52:55;;;;;;;11.20;7.75;;;;;;;7.15;100.00;92866.69;5111535;27;20086;-72
2022/12/08 02:55:26;;;;;;;12.52;7.68;;;;;;;7.11;100.00;92869.81;5111402;28;20396;-72
2022/12/08 02:58:10;;;;;;;11.93;8.27;;;;;;;7.07;100.00;92869.41;5110840;28;20123;-72
2022/12/08 03:00:53;;;;;;;14.38;8.40;;;;;;;7.04;100.00;92862.16;5108508;28;20096;-71
2022/12/08 03:03:27;;;;;;;9.18;7.35;;;;;;;6.80;100.00;92838.75;5111265;28;20047;-72
2022/12/08 03:06:05;;;;;;;9.57;7.25;;;;;;;7.04;100.00;92864.72;5110709;28;20047;-72
2022/12/08 03:08:37;;;;;;;11.05;7.38;;;;;;;7.02;100.00;92859.00;5110954;28;20047;-72
2022/12/08 03:11:10;;;;;;;10.23;7.28;;;;;;;7.04;100.00;92859.59;5110798;28;20081;-72
2022/12/08 03:13:41;;;;;;;13.23;8.32;;;;;;;7.07;100.00;92860.00;5111074;28;20036;-72
2022/12/08 03:16:11;;;;;;;10.25;7.50;;;;;;;6.97;100.00;92841.72;5110807;28;20043;-72
2022/12/08 03:18:43;;;;;;;10.00;7.68;;;;;;;7.05;100.00;92851.72;5110926;28;20116;-72
2022/12/08 03:21:14;;;;;;;10.70;7.65;;;;;;;6.99;100.00;92839.75;5110845;28;20047;-72
2022/12/08 03:23:44;;;;;;;23.25;13.80;;;;;;;7.08;100.00;92848.00;5110939;28;20039;-72
2022/12/08 03:26:17;;;;;;;11.23;6.97;;;;;;;7.08;100.00;92848.78;5110212;28;20108;-72
2022/12/08 03:28:44;;;;;;;10.82;7.95;;;;;;;7.09;100.00;92854.69;5110702;28;20116;-72
2022/12/08 03:31:14;;;;;;;9.80;7.55;;;;;;;7.11;100.00;92852.72;5107657;28;20112;-72
2022/12/08 03:33:44;;;;;;;11.93;8.82;;;;;;;7.16;100.00;92854.69;5110432;28;20560;-72
2022/12/08 03:36:14;;;;;;;10.95;8.30;;;;;;;7.18;100.00;92852.72;5110348;28;20105;-72
2022/12/08 03:38:43;;;;;;;13.05;8.25;;;;;;;7.17;100.00;92854.47;5107895;28;20523;-72
2022/12/08 03:41:20;;;;;;;12.80;7.85;;;;;;;7.19;100.00;92851.75;5109887;28;20088;-72
2022/12/08 03:43:48;;;;;;;14.95;9.93;;;;;;;7.22;100.00;92856.44;5110259;28;20044;-71
2022/12/08 03:46:15;;;;;;;14.82;9.57;;;;;;;7.19;100.00;92849.19;5110283;28;20050;-71
2022/12/08 03:48:42;;;;;;;16.13;10.35;;;;;;;7.18;100.00;92855.28;5110044;28;20089;-72
2022/12/08 03:51:09;;;;;;;13.65;8.75;;;;;;;7.18;100.00;92856.06;5110123;28;20096;-72
2022/12/08 03:53:37;;;;;;;15.57;8.43;;;;;;;7.19;100.00;92870.38;5110303;28;20483;-72
2022/12/08 03:56:06;;;;;;;18.20;11.48;;;;;;;7.28;100.00;92865.09;5110215;28;20519;-72
2022/12/08 03:58:32;;;;;;;15.80;10.25;;;;;;;7.28;100.00;92862.53;5109858;28;20179;-72
2022/12/08 04:00:59;;;;;;;12.45;8.05;;;;;;;7.29;100.00;92867.47;5110021;28;20047;-72
2022/12/08 04:03:26;;;;;;;13.07;8.48;;;;;;;7.33;100.00;92878.84;5109945;28;20051;-72
2022/12/08 04:05:53;;;;;;;12.98;8.52;;;;;;;7.36;100.00;92875.09;5110092;28;20116;-71
2022/12/08 04:08:19;;;;;;;14.35;9.10;;;;;;;7.31;100.00;92864.72;5110148;28;20048;-72
2022/12/08 04:10:48;;;;;;;11.07;8.55;;;;;;;7.28;100.00;92853.13;5109816;28;20047;-72
2022/12/08 04:13:15;;;;;;;12.02;8.63;;;;;;;7.33;100.00;92878.06;5109822;28;20105;-72
2022/12/08 04:15:45;;;;;;;12.40;8.55;;;;;;;7.30;100.00;92874.13;5110059;28;20224;-72
2022/12/08 04:18:12;;;;;;;13.88;8.43;;;;;;;7.28;100.00;92873.56;5109603;28;20483;-72
2022/12/08 04:20:39;;;;;;;19.30;11.18;;;;;;;7.28;100.00;92878.66;5109569;28;20052;-72
2022/12/08 04:23:06;;;;;;;21.35;11.32;;;;;;;7.28;100.00;92877.88;5109652;28;20122;-73
2022/12/08 04:25:33;;;;;;;19.70;10.75;;;;;;;7.28;100.00;92875.31;5109710;28;20104;-72
2022/12/08 04:28:01;;;;;;;27.13;14.02;;;;;;;7.30;100.00;92869.03;5109548;28;20047;-72
2022/12/08 04:30:28;;;;;;;12.40;7.75;;;;;;;7.30;100.00;92883.56;5107242;28;20121;-71
2022/12/08 04:32:54;;;;;;;10.90;7.15;;;;;;;7.30;100.00;92886.13;5109261;28;20051;-72
2022/12/08 04:35:21;;;;;;;18.10;9.93;;;;;;;7.32;100.00;92884.94;5109820;27;20117;-72
2022/12/08 04:37:49;;;;;;;23.30;13.40;;;;;;;7.30;100.00;92889.47;5109379;28;20556;-72
2022/12/08 04:40:15;;;;;;;22.80;12.30;;;;;;;7.32;100.00;92894.38;5068741;28;20167;-73
2022/12/08 04:42:42;;;;;;;17.80;9.45;;;;;;;7.35;100.00;92889.66;5069054;28;20048;-72
2022/12/08 04:45:11;;;;;;;22.77;13.60;;;;;;;7.30;100.00;92886.13;5068773;28;20455;-73
2022/12/08 04:47:38;;;;;;;11.43;7.88;;;;;;;7.40;100.00;92893.41;5069034;28;20443;-73
2022/12/08 04:50:06;;;;;;;11.00;7.00;;;;;;;7.38;100.00;92892.78;5068676;28;20049;-73
2022/12/08 04:52:33;;;;;;;13.77;9.02;;;;;;;7.38;100.00;92885.94;5072255;28;20052;-72
2022/12/08 04:55:00;;;;;;;10.93;7.63;;;;;;;7.37;100.00;92883.56;5073031;28;20097;-73
2022/12/08 04:57:27;;;;;;;17.52;9.48;;;;;;;7.40;100.00;92886.50;5072720;28;20040;-72
2022/12/08 04:59:53;;;;;;;16.45;9.80;;;;;;;7.40;100.00;92890.84;5072964;28;20425;-72
2022/12/08 05:02:21;;;;;;;16.23;10.05;;;;;;;7.41;100.00;92890.63;5073301;28;20052;-72
2022/12/08 05:04:48;;;;;;;20.80;11.40;;;;;;;7.41;100.00;92889.84;5072824;28;20053;-72
2022/12/08 05:07:15;;;;;;;12.52;8.45;;;;;;;7.46;100.00;92898.50;5072757;28;20129;-72
2022/12/08 05:09:42;;;;;;;21.20;11.95;;;;;;;7.47;100.00;92901.84;5072567;28;20049;-72
2022/12/08 05:12:08;;;;;;;15.63;9.98;;;;;;;7.44;100.00;92895.34;5072717;28;20049;-72
2022/12/08 05:14:35;;;;;;;13.82;9.63;;;;;;;7.46;100.00;92901.03;5072541;28;20513;-72
2022/12/08 05:17:02;;;;;;;13.88;9.05;;;;;;;7.46;100.00;92900.28;5072314;28;20048;-72
2022/12/08 05:19:30;;;;;;;15.07;10.10;;;;;;;7.48;100.00;92913.63;5072123;28;20114;-72
2022/12/08 05:21:56;;;;;;;14.27;8.70;;;;;;;7.49;100.00;92910.09;5072232;28;20052;-72
2022/12/08 05:24:23;;;;;;;9.70;7.75;;;;;;;7.52;100.00;92903.78;5072547;28;20041;-72
2022/12/08 05:26:50;;;;;;;17.23;12.00;;;;;;;7.53;100.00;92918.94;5072419;28;20346;-72
2022/12/08 05:29:17;;;;;;;17.88;11.05;;;;;;;7.58;100.00;92919.13;5072086;28;20557;-72
2022/12/08 05:31:44;;;;;;;34.58;21.75;;;;;;;7.61;100.00;92930.72;5072105;28;20570;-73
2022/12/08 05:34:10;;;;;;;17.25;10.98;;;;;;;7.59;100.00;92930.94;5072304;28;20048;-72
2022/12/08 05:36:38;;;;;;;23.15;14.05;;;;;;;7.67;100.00;92921.47;5072334;28;20052;-72
2022/12/08 05:39:05;;;;;;;12.18;7.72;;;;;;;7.69;100.00;92930.50;5093515;28;20128;-72
2022/12/08 05:41:32;;;;;;;12.55;9.02;;;;;;;7.67;100.00;92929.13;5112617;28;20116;-72
2022/12/08 05:43:59;;;;;;;18.13;11.50;;;;;;;7.73;100.00;92931.69;5112241;28;20081;-72
2022/12/08 05:46:25;;;;;;;12.80;8.65;;;;;;;7.72;100.00;92934.44;5112908;28;20102;-72
2022/12/08 05:48:52;;;;;;;17.33;10.75;;;;;;;7.70;100.00;92933.88;5112550;28;20039;-72
2022/12/08 05:51:21;;;;;;;17.90;11.75;;;;;;;7.77;100.00;92933.88;5112855;28;20043;-72
2022/12/08 05:53:51;;;;;;;21.98;12.63;;;;;;;7.77;100.00;92931.31;5112482;28;20128;-72
2022/12/08 05:56:17;;;;;;;29.30;14.40;;;;;;;7.75;100.00;92928.94;5112362;28;20502;-72
2022/12/08 05:58:44;;;;;;;43.05;21.08;;;;;;;7.73;100.00;92934.25;5112526;28;20051;-72
2022/12/08 06:01:19;;;;;;;18.40;10.57;;;;;;;7.68;100.00;92925.63;5112312;28;20113;-72
2022/12/08 06:03:45;;;;;;;15.38;10.18;;;;;;;7.70;100.00;92936.44;5111813;28;20491;-72
2022/12/08 06:06:12;;;;;;;16.17;10.82;;;;;;;7.64;100.00;92932.88;5112399;28;20203;-72
2022/12/08 06:08:39;;;;;;;22.27;11.20;;;;;;;7.42;100.00;92912.66;5109075;28;20036;-72
2022/12/08 06:11:07;;;;;;;18.90;11.05;;;;;;;7.58;100.00;92943.91;5112375;28;20051;-72
2022/12/08 06:13:34;;;;;;;19.83;12.20;;;;;;;7.60;100.00;92947.81;5111781;28;20051;-72
2022/12/08 06:16:04;;;;;;;18.92;11.98;;;;;;;7.60;100.00;92947.06;5112253;28;20051;-72
2022/12/08 06:18:31;;;;;;;11.05;7.63;;;;;;;7.61;100.00;92940.97;5103875;28;20609;-72
2022/12/08 06:21:02;;;;;;;12.88;9.23;;;;;;;7.59;100.00;92946.25;5110533;28;20105;-72
2022/12/08 06:23:29;;;;;;;16.63;8.57;;;;;;;7.62;100.00;92945.88;5111916;28;20044;-72
2022/12/08 06:25:59;;;;;;;15.07;8.57;;;;;;;7.52;100.00;92947.25;5112180;28;20488;-72
2022/12/08 06:28:28;;;;;;;13.13;8.15;;;;;;;7.64;100.00;92953.31;5111920;28;20077;-71
2022/12/08 06:30:54;;;;;;;11.77;7.93;;;;;;;7.67;100.00;92958.06;5112394;28;20059;-71
2022/12/08 06:33:21;;;;;;;13.82;8.40;;;;;;;7.70;100.00;92960.22;5112040;28;20117;-71
2022/12/08 06:35:48;;;;;;;13.02;8.57;;;;;;;7.75;100.00;92964.75;5112331;28;20449;-71
2022/12/08 06:38:15;;;;;;;15.73;8.88;;;;;;;7.78;100.00;92959.22;5111479;28;20063;-71
2022/12/08 06:40:41;;;;;;;13.43;9.27;;;;;;;7.81;100.00;92961.41;5112182;28;20051;-72
2022/12/08 06:43:08;;;;;;;13.65;8.77;;;;;;;7.78;100.00;92954.09;5111739;28;20047;-72
2022/12/08 06:45:36;;;;;;;11.18;8.27;;;;;;;7.77;100.00;92949.22;5112189;28;20051;-72
2022/12/08 06:48:03;;;;;;;17.77;9.68;;;;;;;7.78;100.00;92949.00;5111652;28;20069;-72
2022/12/08 06:50:31;;;;;;;14.15;9.45;;;;;;;7.78;100.00;92956.66;5111654;28;20051;-72
2022/12/08 06:52:58;;;;;;;12.02;8.52;;;;;;;7.70;100.00;92942.34;5111547;28;20044;-72
2022/12/08 06:55:24;;;;;;;10.68;7.93;;;;;;;7.75;100.00;92957.06;5111982;28;20488;-72
2022/12/08 06:57:52;;;;;;;16.00;8.77;;;;;;;7.80;100.00;92954.72;5111469;28;20112;-72
2022/12/08 07:00:20;;;;;;;12.38;8.48;;;;;;;7.81;100.00;92958.84;5111661;28;20043;-72
2022/12/08 07:02:48;;;;;;;12.50;7.20;;;;;;;7.67;100.00;92950.38;5111540;28;20495;-72
2022/12/08 07:05:15;;;;;;;13.68;9.23;;;;;;;7.84;100.00;92962.78;5111212;28;20077;-72
2022/12/08 07:07:41;;;;;;;14.98;10.30;;;;;;;7.85;100.00;92967.69;5111835;27;20047;-72
2022/12/08 07:10:09;;;;;;;12.27;8.50;;;;;;;7.88;100.00;92976.75;5111339;28;20052;-72
2022/12/08 07:12:35;;;;;;;12.18;7.95;;;;;;;7.93;100.00;92984.59;5111068;28;20100;-72
2022/12/08 07:15:02;;;;;;;12.35;8.48;;;;;;;7.86;100.00;92968.47;5110311;28;20488;-72
2022/12/08 07:17:29;;;;;;;15.52;9.07;;;;;;;7.97;100.00;92980.63;5097247;28;20048;-72
2022/12/08 07:19:57;;;;;;;12.75;9.15;;;;;;;7.97;100.00;92990.88;5111166;28;20499;-72
2022/12/08 07:22:23;;;;;;;14.35;10.23;;;;;;;7.99;100.00;92990.69;5111139;28;20479;-72
2022/12/08 07:24:50;;;;;;;15.95;9.35;;;;;;;8.05;100.00;92994.22;5111465;28;20462;-72
2022/12/08 07:27:17;;;;;;;16.25;9.38;;;;;;;8.07;100.00;92990.50;5111040;28;20125;-72
2022/12/08 07:29:43;;;;;;;15.90;8.63;;;;;;;8.12;100.00;92988.13;5111435;27;20051;-72
2022/12/08 07:32:10;;;;;;;15.70;8.43;;;;;;;8.14;100.00;92987.91;5111091;28;20084;-72
2022/12/08 07:34:37;;;;;;;12.93;8.18;;;;;;;8.01;100.00;92971.59;5111050;28;20452;-72
2022/12/08 07:37:05;;;;;;;15.77;9.57;;;;;;;8.18;100.00;92985.75;5111030;28;20051;-72
2022/12/08 07:39:32;;;;;;;13.52;9.05;;;;;;;8.23;100.00;92986.72;5110460;28;20055;-72
2022/12/08 07:41:59;;;;;;;14.93;9.25;;;;;;;8.25;100.00;92992.41;5110673;27;20052;-72
2022/12/08 07:44:26;;;;;;;12.45;8.00;;;;;;;8.30;100.00;92991.81;5110591;28;20073;-72
2022/12/08 07:46:52;;;;;;;13.70;8.55;;;;;;;8.43;100.00;92986.66;5111142;28;20051;-72
2022/12/08 07:49:19;;;;;;;18.08;8.88;;;;;;;8.55;100.00;92984.28;5110827;28;20453;-72
2022/12/08 07:51:46;;;;;;;11.93;7.68;;;;;;;8.66;100.00;92993.09;5111017;28;20104;-72
2022/12/08 07:54:14;;;;;;;11.38;7.50;;;;;;;8.72;100.00;92998.41;5110426;28;20096;-72
2022/12/08 07:56:40;;;;;;;13.20;7.57;;;;;;;8.86;100.00;92992.25;5110036;28;20047;-72
2022/12/08 07:59:07;;;;;;;17.58;8.80;;;;;;;9.01;100.00;93004.78;5110641;28;20487;-72
2022/12/08 08:01:35;;;;;;;26.30;12.05;;;;;;;9.12;100.00;93007.69;5110469;28;20427;-72
2022/12/08 08:04:04;;;;;;;14.27;8.30;;;;;;;9.21;100.00;93003.88;5110332;28;20048;-72
2022/12/08 08:06:32;;;;;;;13.02;8.02;;;;;;;9.19;100.00;93011.78;5110510;28;20129;-72
2022/12/08 08:08:59;;;;;;;12.98;7.80;;;;;;;9.22;100.00;93005.47;5109729;28;20052;-72
2022/12/08 08:11:27;;;;;;;14.32;7.50;;;;;;;9.30;100.00;93012.91;5110312;28;20073;-72
2022/12/08 08:13:54;;;;;;;15.73;9.40;;;;;;;9.39;100.00;93003.19;5110275;28;20479;-72
2022/12/08 08:16:21;;;;;;;13.48;7.32;;;;;;;9.45;100.00;93011.84;5110441;28;20100;-72
2022/12/08 08:18:48;;;;;;;10.63;6.18;;;;;;;9.44;100.00;93005.16;5110310;28;20395;-72
2022/12/08 08:21:16;;;;;;;10.40;5.80;;;;;;;9.44;100.00;93007.72;5110096;28;20135;-72
2022/12/08 08:23:43;;;;;;;9.40;6.30;;;;;;;9.46;100.00;93009.09;5109731;28;20100;-72
2022/12/08 08:26:09;;;;;;;8.75;6.15;;;;;;;9.43;100.00;93012.03;5103834;28;20136;-72
2022/12/08 08:28:38;;;;;;;10.55;7.07;;;;;;;9.41;100.00;93005.56;5098821;28;20487;-72
2022/12/08 08:31:05;;;;;;;12.98;6.78;;;;;;;9.43;100.00;93012.03;5109932;28;20507;-72
2022/12/08 08:33:33;;;;;;;11.10;6.47;;;;;;;9.44;100.00;93016.19;5109750;28;20475;-72
2022/12/08 08:35:59;;;;;;;9.35;6.22;;;;;;;9.38;100.00;93004.19;5110083;28;20047;-72
2022/12/08 08:38:26;;;;;;;13.32;6.82;;;;;;;9.29;100.00;93002.84;5109961;28;20112;-72
2022/12/08 08:40:53;;;;;;;11.25;7.03;;;;;;;9.29;100.00;93003.66;5109525;28;20088;-72
2022/12/08 08:43:28;;;;;;;11.45;6.85;;;;;;;9.28;100.00;92996.16;5110091;28;20415;-72
2022/12/08 08:45:58;;;;;;;10.05;6.88;;;;;;;9.30;100.00;92991.63;5109923;28;20208;-72
2022/12/08 08:48:26;;;;;;;15.32;8.35;;;;;;;9.39;100.00;92989.59;5110087;28;20140;-72
2022/12/08 08:50:53;;;;;;;13.93;7.00;;;;;;;9.48;100.00;92988.34;5110108;28;20051;-72
2022/12/08 08:53:20;;;;;;;9.63;6.28;;;;;;;9.63;100.00;92996.53;5109633;28;20093;-71
2022/12/08 08:55:48;;;;;;;9.20;6.00;;;;;;;9.81;100.00;92986.53;5109825;28;20047;-72
2022/12/08 08:58:16;;;;;;;10.23;6.78;;;;;;;9.88;100.00;92985.50;5109702;28;20096;-72
2022/12/08 09:00:43;;;;;;;11.18;6.85;;;;;;;10.18;100.00;92991.72;5110084;28;20461;-72
2022/12/08 09:03:11;;;;;;;10.05;5.88;;;;;;;10.24;100.00;92997.81;5109964;28;20473;-72
2022/12/08 09:05:38;;;;;;;10.90;7.38;;;;;;;10.37;100.00;93002.78;5109521;28;20119;-71
2022/12/08 09:08:05;;;;;;;9.43;5.95;;;;;;;10.51;100.00;92993.19;5109922;28;20044;-72
2022/12/08 09:10:32;;;;;;;12.05;5.95;;;;;;;10.66;100.00;93004.91;5109777;28;20051;-71
2022/12/08 09:12:59;;;;;;;8.05;6.03;;;;;;;10.83;100.00;92994.81;5109963;28;20089;-71
2022/12/08 09:15:25;;;;;;;10.75;6.28;;;;;;;11.05;100.00;92997.72;5109602;28;20108;-72
2022/12/08 09:17:52;;;;;;;10.65;6.35;;;;;;;11.27;100.00;92997.25;5109791;28;20048;-72
2022/12/08 09:20:20;;;;;;;9.00;5.20;;;;;;;11.44;100.00;92994.06;5109499;28;20108;-71
2022/12/08 09:22:47;;;;;;;8.85;5.28;;;;;;;11.58;100.00;92999.78;5109575;28;20502;-71
2022/12/08 09:25:13;;;;;;;10.65;5.65;;;;;;;11.76;100.00;92997.13;5109655;28;20051;-72
2022/12/08 09:27:40;;;;;;;12.88;5.43;;;;;;;11.89;100.00;93001.28;5104896;28;20089;-72
2022/12/08 09:30:08;;;;;;;12.27;7.20;;;;;;;11.99;100.00;92993.00;5097640;28;20048;-72
2022/12/08 09:32:35;;;;;;;8.57;5.38;;;;;;;11.95;100.00;92991.88;5091036;28;20054;-72
2022/12/08 09:35:02;;;;;;;8.80;5.32;;;;;;;11.74;100.00;92982.91;5107231;28;20564;-72
2022/12/08 09:37:30;;;;;;;8.40;5.82;;;;;;;11.85;100.00;92976.22;5110996;28;20054;-72
2022/12/08 09:39:57;;;;;;;7.65;5.22;;;;;;;11.91;100.00;92980.47;5113001;28;20047;-72
2022/12/08 09:42:35;;;;;;;8.40;5.43;;;;;;;11.83;100.00;92979.00;5113269;28;20073;-72
2022/12/08 09:45:09;;;;;;;13.93;8.35;;;;;;;11.82;100.00;92974.88;5113073;28;20451;-72
2022/12/08 09:47:39;;;;;;;10.35;4.95;;;;;;;11.83;100.00;92971.28;5113020;28;20051;-72
2022/12/08 09:50:13;;;;;;;15.13;8.00;;;;;;;11.94;100.00;92971.53;5113033;28;20047;-71
2022/12/08 09:52:44;;;;;;;7.35;5.03;;;;;;;11.90;100.00;92961.66;5113219;28;20048;-72
2022/12/08 09:55:20;;;;;;;10.88;5.40;;;;;;;11.79;100.00;92946.25;5112942;28;20128;-72
2022/12/08 09:57:54;;;;;;;10.10;5.35;;;;;;;11.71;100.00;92939.63;5112729;28;20047;-72
2022/12/08 10:00:21;;;;;;;9.68;5.95;;;;;;;11.81;100.00;92960.41;5112927;28;20118;-72
2022/12/08 10:02:48;;;;;;;9.15;6.45;;;;;;;11.85;100.00;92947.91;5111996;28;20043;-72
2022/12/08 10:05:15;;;;;;;13.85;7.20;;;;;;;11.92;100.00;92940.06;5112331;28;20097;-71
2022/12/08 10:07:47;;;;;;;7.78;5.25;;;;;;;11.93;100.00;92939.06;5112605;28;20097;-72
2022/12/08 10:10:26;;;;;;;8.38;5.03;;;;;;;12.01;100.00;92946.44;5112368;28;20499;-72
2022/12/08 10:12:59;;;;;;;8.65;4.93;;;;;;;12.00;100.00;92940.50;5112210;28;20054;-72
2022/12/08 10:15:46;;;;;;;8.05;5.15;;;;;;;12.12;100.00;92935.38;5112579;28;20055;-72
2022/12/08 10:18:23;;;;;;;11.57;5.30;;;;;;;12.22;100.00;92937.38;5112130;28;20093;-72
2022/12/08 10:20:57;;;;;;;14.00;4.90;;;;;;;12.19;100.00;92940.41;5112241;28;20097;-72
2022/12/08 10:23:31;;;;;;;10.38;5.53;;;;;;;12.24;100.00;92943.09;5112332;28;20098;-72
2022/12/08 10:26:02;;;;;;;11.65;4.60;;;;;;;12.25;100.00;92942.09;5112452;28;20059;-72
2022/12/08 10:28:29;;;;;;;13.15;6.60;;;;;;;12.27;100.00;92932.34;5112467;28;20073;-72
2022/12/08 10:30:56;;;;;;;10.88;5.97;;;;;;;12.29;100.00;92921.81;5106770;28;20105;-72
2022/12/08 10:33:23;;;;;;;9.95;5.57;;;;;;;12.44;100.00;92916.19;5107702;28;20047;-72
2022/12/08 10:35:52;;;;;;;22.40;10.55;;;;;;;12.53;100.00;92919.97;5112395;28;20047;-72
2022/12/08 10:38:22;;;;;;;12.07;5.38;;;;;;;12.71;100.00;92907.91;5112039;28;20047;-72
2022/12/08 10:40:55;;;;;;;8.65;4.00;;;;;;;12.87;100.00;92914.13;5097785;28;20495;-72
2022/12/08 10:43:25;;;;;;;7.13;4.78;;;;;;;12.86;100.00;92907.41;5111950;28;20051;-72
2022/12/08 10:45:52;;;;;;;11.60;4.90;;;;;;;12.96;100.00;92917.91;5111688;28;20566;-72
2022/12/08 10:48:21;;;;;;;7.72;4.97;;;;;;;13.00;100.00;92922.59;5111894;28;20487;-72
2022/12/08 10:50:54;;;;;;;182.82;94.05;;;;;;;13.05;100.00;92925.28;5112058;28;20052;-72
2022/12/08 10:53:23;;;;;;;13.80;7.40;;;;;;;13.04;100.00;92906.44;5111719;28;20044;-72
2022/12/08 10:55:52;;;;;;;6.72;4.30;;;;;;;13.05;100.00;92899.50;5112010;28;20100;-72
2022/12/08 10:58:28;;;;;;;20.40;9.10;;;;;;;13.11;100.00;92898.56;5111828;28;20105;-72
2022/12/08 11:00:58;;;;;;;22.30;14.40;;;;;;;13.16;100.00;92898.66;5111737;28;20048;-72
2022/12/08 11:03:28;;;;;;;10.32;5.40;;;;;;;13.23;100.00;92888.16;5111462;28;20100;-72
2022/12/08 11:06:00;;;;;;;10.13;6.38;;;;;;;13.08;100.00;92891.28;5106093;28;20047;-72
2022/12/08 11:08:28;;;;;;;12.50;8.40;;;;;;;13.02;100.00;92885.28;5109450;28;20039;-72
2022/12/08 11:10:56;;;;;;;63.58;35.13;;;;;;;13.07;100.00;92884.56;5110629;28;20097;-72
2022/12/08 11:13:26;;;;;;;51.83;26.35;;;;;;;13.00;100.00;92876.97;5111401;28;20048;-72
2022/12/08 11:15:54;;;;;;;41.38;22.33;;;;;;;13.05;100.00;92878.88;5111505;28;20128;-72
2022/12/08 11:18:25;;;;;;;13.88;7.13;;;;;;;12.79;100.00;92862.97;5111015;28;20532;-72
2022/12/08 11:21:11;;;;;;;7.25;4.28;;;;;;;12.78;100.00;92872.47;5111036;28;20130;-72
2022/12/08 11:23:41;;;;;;;9.60;6.15;;;;;;;12.62;100.00;92862.91;5108273;28;20097;-72
2022/12/08 11:26:18;;;;;;;7.13;3.90;;;;;;;12.40;100.00;92837.78;5101015;28;20051;-72
2022/12/08 11:28:45;;;;;;;13.52;8.00;;;;;;;12.55;100.00;92858.69;5111261;28;20077;-72
2022/12/08 11:31:22;;;;;;;12.75;7.45;;;;;;;12.59;100.00;92855.66;5111180;28;20104;-72
2022/12/08 11:33:51;;;;;;;8.88;3.78;;;;;;;12.59;100.00;92863.38;5110932;28;20499;-72
2022/12/08 11:36:22;;;;;;;14.50;6.60;;;;;;;12.62;100.00;92855.97;5110427;28;20101;-72